This is the latest recevied weather packets stored in our database for station/object EB1BCG-1. If no packets are shown the sender has not sent any weather packets the latest 10 day(s).
| Time | Temp. | Humidity | Pressure | Rain* | Wind** | Luminosity | Snow |
|---|---|---|---|---|---|---|---|
| 1777653393 | 18.89° C | 66% | 1018.7 hPa | 0 mm | 0 m/s | - | - |
| 1777652789 | 20° C | 65% | 1018.6 hPa | 0 mm | 0 m/s | - | - |
| 1777652179 | 17.78° C | 64% | 1018.7 hPa | 0 mm | 0 m/s | - | - |
| 1777651572 | 17.78° C | 62% | 1018.8 hPa | 0 mm | 0 m/s | - | - |
| 1777650963 | 18.89° C | 60% | 1018.7 hPa | 0 mm | 0 m/s | - | - |
| 1777650357 | 18.89° C | 62% | 1018.5 hPa | 0 mm | 0 m/s | - | - |
| 1777649750 | 20.56° C | 59% | 1018.4 hPa | 0 mm | 0 m/s | - | - |
| 1777649143 | 17.22° C | 57% | 1018.3 hPa | 0 mm | 0 m/s | - | - |
| 1777648537 | 17.78° C | 54% | 1018.3 hPa | 0 mm | 0 m/s | - | - |
| 1777647931 | 17.78° C | 48% | 1018.3 hPa | 0 mm | 0 m/s | - | - |
| 1777647329 | 20° C | 46% | 1018 hPa | 0 mm | 0 m/s | - | - |
| 1777646720 | 22.22° C | 43% | 1017.5 hPa | 0 mm | 0 m/s | - | - |
| 1777645509 | 24.44° C | 42% | 1017.3 hPa | 0 mm | 0 m/s | - | - |
| 1777644899 | 26.11° C | 46% | 1017.2 hPa | 0 mm | 0 m/s | - | - |
| 1777644291 | 25.56° C | 45% | 1017.4 hPa | 0 mm | 0 m/s | - | - |
| 1777643684 | 23.33° C | 48% | 1017.6 hPa | 0 mm | 0 m/s | - | - |
| 1777643077 | 22.78° C | 48% | 1017.8 hPa | 0 mm | 0 m/s | - | - |
| 1777642470 | 25° C | 51% | 1017.7 hPa | 0 mm | 0 m/s | - | - |
| 1777641862 | 25° C | 58% | 1017.8 hPa | 0 mm | 0 m/s | - | - |
| 1777641254 | 21.11° C | 55% | 1018.2 hPa | 0 mm | 0 m/s | - | - |
| 1777640040 | 20° C | 50% | 1018.3 hPa | 0 mm | 0 m/s | - | - |
| 1777639434 | 21.11° C | 47% | 1018.3 hPa | 0 mm | 0 m/s | - | - |
| 1777638828 | 22.78° C | 46% | 1018.2 hPa | 0 mm | 0 m/s | - | - |
| 1777638221 | 23.89° C | 51% | 1018.1 hPa | 0 mm | 0 m/s | - | - |
| 1777637615 | 22.22° C | 51% | 1018.2 hPa | 0 mm | 0 m/s | - | - |
* Rain latest hour (hover to see other rain measurements)
** Current wind speed in m/s (hover to see current wind gust speed)